sensor_id;sensor_type;location;lat;lon;timestamp;P1;durP1;ratioP1;P2;durP2;ratioP2
74658;SDS011;63186;51.204;6.536;2023-10-31T00:02:23;5.82;;;3.10;;
74658;SDS011;63186;51.204;6.536;2023-10-31T00:04:48;5.80;;;2.60;;
74658;SDS011;63186;51.204;6.536;2023-10-31T00:07:13;5.93;;;3.10;;
74658;SDS011;63186;51.204;6.536;2023-10-31T00:09:39;5.72;;;2.92;;
74658;SDS011;63186;51.204;6.536;2023-10-31T00:12:05;5.90;;;2.38;;
74658;SDS011;63186;51.204;6.536;2023-10-31T00:14:30;5.78;;;2.72;;
74658;SDS011;63186;51.204;6.536;2023-10-31T00:16:56;4.55;;;2.55;;
74658;SDS011;63186;51.204;6.536;2023-10-31T00:19:21;5.38;;;2.92;;
74658;SDS011;63186;51.204;6.536;2023-10-31T00:21:47;6.20;;;2.93;;
74658;SDS011;63186;51.204;6.536;2023-10-31T00:24:12;5.37;;;2.80;;
74658;SDS011;63186;51.204;6.536;2023-10-31T00:26:37;5.77;;;2.70;;
74658;SDS011;63186;51.204;6.536;2023-10-31T00:29:03;4.83;;;2.63;;
74658;SDS011;63186;51.204;6.536;2023-10-31T00:31:28;5.63;;;3.08;;
74658;SDS011;63186;51.204;6.536;2023-10-31T00:33:53;5.17;;;2.43;;
74658;SDS011;63186;51.204;6.536;2023-10-31T00:36:18;4.73;;;2.27;;
74658;SDS011;63186;51.204;6.536;2023-10-31T00:38:44;3.77;;;2.10;;
74658;SDS011;63186;51.204;6.536;2023-10-31T00:41:09;4.70;;;2.10;;
74658;SDS011;63186;51.204;6.536;2023-10-31T00:43:34;5.10;;;2.27;;
74658;SDS011;63186;51.204;6.536;2023-10-31T00:46:01;6.88;;;2.22;;
74658;SDS011;63186;51.204;6.536;2023-10-31T00:48:27;3.92;;;2.00;;
74658;SDS011;63186;51.204;6.536;2023-10-31T00:50:52;4.27;;;2.10;;
74658;SDS011;63186;51.204;6.536;2023-10-31T00:53:18;5.20;;;2.30;;
74658;SDS011;63186;51.204;6.536;2023-10-31T00:55:43;6.22;;;2.28;;
74658;SDS011;63186;51.204;6.536;2023-10-31T00:58:09;5.18;;;1.98;;
74658;SDS011;63186;51.204;6.536;2023-10-31T01:00:34;5.50;;;2.20;;
74658;SDS011;63186;51.204;6.536;2023-10-31T01:03:02;4.40;;;2.13;;
74658;SDS011;63186;51.204;6.536;2023-10-31T01:05:28;4.70;;;2.45;;
74658;SDS011;63186;51.204;6.536;2023-10-31T01:07:53;4.40;;;2.15;;
74658;SDS011;63186;51.204;6.536;2023-10-31T01:10:19;5.70;;;2.10;;
74658;SDS011;63186;51.204;6.536;2023-10-31T01:12:45;4.07;;;1.88;;
74658;SDS011;63186;51.204;6.536;2023-10-31T01:15:10;9.40;;;2.50;;
74658;SDS011;63186;51.204;6.536;2023-10-31T01:17:35;3.85;;;2.00;;
74658;SDS011;63186;51.204;6.536;2023-10-31T01:20:01;6.47;;;2.90;;
74658;SDS011;63186;51.204;6.536;2023-10-31T01:22:26;4.87;;;1.93;;
74658;SDS011;63186;51.204;6.536;2023-10-31T01:24:52;5.37;;;2.30;;
74658;SDS011;63186;51.204;6.536;2023-10-31T01:27:17;5.90;;;2.55;;
74658;SDS011;63186;51.204;6.536;2023-10-31T01:29:42;8.77;;;3.07;;
74658;SDS011;63186;51.204;6.536;2023-10-31T01:32:08;7.70;;;3.37;;
74658;SDS011;63186;51.204;6.536;2023-10-31T01:34:33;10.20;;;3.43;;
74658;SDS011;63186;51.204;6.536;2023-10-31T01:36:58;5.90;;;2.50;;
74658;SDS011;63186;51.204;6.536;2023-10-31T01:39:24;5.82;;;2.50;;
74658;SDS011;63186;51.204;6.536;2023-10-31T01:41:49;5.93;;;2.60;;
74658;SDS011;63186;51.204;6.536;2023-10-31T01:44:14;7.83;;;2.93;;
74658;SDS011;63186;51.204;6.536;2023-10-31T01:46:39;8.30;;;3.47;;
74658;SDS011;63186;51.204;6.536;2023-10-31T01:49:05;7.90;;;3.23;;
74658;SDS011;63186;51.204;6.536;2023-10-31T01:51:30;6.37;;;2.90;;
74658;SDS011;63186;51.204;6.536;2023-10-31T01:53:56;7.47;;;3.03;;
74658;SDS011;63186;51.204;6.536;2023-10-31T01:56:21;9.25;;;3.92;;
74658;SDS011;63186;51.204;6.536;2023-10-31T01:58:48;8.95;;;4.15;;
74658;SDS011;63186;51.204;6.536;2023-10-31T02:01:14;7.20;;;3.25;;
74658;SDS011;63186;51.204;6.536;2023-10-31T02:03:40;9.50;;;4.30;;
74658;SDS011;63186;51.204;6.536;2023-10-31T02:06:05;7.90;;;3.83;;
74658;SDS011;63186;51.204;6.536;2023-10-31T02:08:31;10.27;;;3.95;;
74658;SDS011;63186;51.204;6.536;2023-10-31T02:10:57;6.80;;;2.97;;
74658;SDS011;63186;51.204;6.536;2023-10-31T02:13:22;9.20;;;3.67;;
74658;SDS011;63186;51.204;6.536;2023-10-31T02:15:48;10.98;;;4.45;;
74658;SDS011;63186;51.204;6.536;2023-10-31T02:18:13;8.27;;;3.72;;
74658;SDS011;63186;51.204;6.536;2023-10-31T02:20:39;9.38;;;4.30;;
74658;SDS011;63186;51.204;6.536;2023-10-31T02:23:04;9.75;;;4.32;;
74658;SDS011;63186;51.204;6.536;2023-10-31T02:25:30;9.82;;;3.75;;
74658;SDS011;63186;51.204;6.536;2023-10-31T02:27:55;10.63;;;4.60;;
74658;SDS011;63186;51.204;6.536;2023-10-31T02:30:21;9.57;;;4.15;;
74658;SDS011;63186;51.204;6.536;2023-10-31T02:32:47;9.02;;;4.22;;
74658;SDS011;63186;51.204;6.536;2023-10-31T02:35:12;9.90;;;3.72;;
74658;SDS011;63186;51.204;6.536;2023-10-31T02:37:39;10.55;;;3.70;;
74658;SDS011;63186;51.204;6.536;2023-10-31T02:40:04;10.30;;;4.63;;
74658;SDS011;63186;51.204;6.536;2023-10-31T02:42:31;12.40;;;5.03;;
74658;SDS011;63186;51.204;6.536;2023-10-31T02:44:56;12.45;;;4.25;;
74658;SDS011;63186;51.204;6.536;2023-10-31T02:47:21;10.30;;;4.10;;
74658;SDS011;63186;51.204;6.536;2023-10-31T02:49:47;9.27;;;4.63;;
74658;SDS011;63186;51.204;6.536;2023-10-31T02:52:12;12.97;;;4.80;;
74658;SDS011;63186;51.204;6.536;2023-10-31T02:54:37;14.73;;;5.43;;
74658;SDS011;63186;51.204;6.536;2023-10-31T02:57:03;9.57;;;4.07;;
74658;SDS011;63186;51.204;6.536;2023-10-31T02:59:28;12.88;;;5.25;;
74658;SDS011;63186;51.204;6.536;2023-10-31T03:01:55;11.20;;;4.73;;
74658;SDS011;63186;51.204;6.536;2023-10-31T03:04:22;9.93;;;4.13;;
74658;SDS011;63186;51.204;6.536;2023-10-31T03:06:47;9.02;;;4.22;;
74658;SDS011;63186;51.204;6.536;2023-10-31T03:09:13;10.00;;;3.83;;
74658;SDS011;63186;51.204;6.536;2023-10-31T03:11:38;9.70;;;3.80;;
74658;SDS011;63186;51.204;6.536;2023-10-31T03:14:03;9.63;;;3.97;;
74658;SDS011;63186;51.204;6.536;2023-10-31T03:16:29;8.57;;;3.73;;
74658;SDS011;63186;51.204;6.536;2023-10-31T03:18:54;10.70;;;5.17;;
74658;SDS011;63186;51.204;6.536;2023-10-31T03:21:19;9.83;;;4.00;;
74658;SDS011;63186;51.204;6.536;2023-10-31T03:23:48;9.40;;;3.80;;
74658;SDS011;63186;51.204;6.536;2023-10-31T03:26:15;8.82;;;4.03;;
74658;SDS011;63186;51.204;6.536;2023-10-31T03:28:42;9.40;;;3.55;;
74658;SDS011;63186;51.204;6.536;2023-10-31T03:31:08;9.25;;;3.35;;
74658;SDS011;63186;51.204;6.536;2023-10-31T03:33:34;8.13;;;3.38;;
74658;SDS011;63186;51.204;6.536;2023-10-31T03:35:59;8.27;;;3.30;;
74658;SDS011;63186;51.204;6.536;2023-10-31T03:38:24;8.10;;;3.23;;
74658;SDS011;63186;51.204;6.536;2023-10-31T03:40:50;9.73;;;3.37;;
74658;SDS011;63186;51.204;6.536;2023-10-31T03:43:15;9.60;;;3.80;;
74658;SDS011;63186;51.204;6.536;2023-10-31T03:45:40;7.47;;;2.77;;
74658;SDS011;63186;51.204;6.536;2023-10-31T03:48:06;6.90;;;3.63;;
74658;SDS011;63186;51.204;6.536;2023-10-31T03:50:31;8.53;;;3.87;;
74658;SDS011;63186;51.204;6.536;2023-10-31T03:52:56;8.47;;;3.17;;
74658;SDS011;63186;51.204;6.536;2023-10-31T03:55:21;6.87;;;3.03;;
74658;SDS011;63186;51.204;6.536;2023-10-31T03:57:47;9.97;;;3.57;;
74658;SDS011;63186;51.204;6.536;2023-10-31T04:00:12;7.60;;;3.00;;
74658;SDS011;63186;51.204;6.536;2023-10-31T04:02:39;9.13;;;4.22;;
74658;SDS011;63186;51.204;6.536;2023-10-31T04:05:04;8.75;;;3.40;;
74658;SDS011;63186;51.204;6.536;2023-10-31T04:07:30;10.23;;;3.28;;
74658;SDS011;63186;51.204;6.536;2023-10-31T04:09:55;6.67;;;3.27;;
74658;SDS011;63186;51.204;6.536;2023-10-31T04:12:21;7.72;;;3.55;;
74658;SDS011;63186;51.204;6.536;2023-10-31T04:14:46;7.90;;;3.27;;
74658;SDS011;63186;51.204;6.536;2023-10-31T04:17:12;7.80;;;3.13;;
74658;SDS011;63186;51.204;6.536;2023-10-31T04:19:37;7.40;;;3.30;;
74658;SDS011;63186;51.204;6.536;2023-10-31T04:22:02;7.93;;;3.07;;
74658;SDS011;63186;51.204;6.536;2023-10-31T04:24:27;7.32;;;3.65;;
74658;SDS011;63186;51.204;6.536;2023-10-31T04:26:53;7.97;;;3.50;;
74658;SDS011;63186;51.204;6.536;2023-10-31T04:29:18;9.47;;;3.33;;
74658;SDS011;63186;51.204;6.536;2023-10-31T04:31:43;8.47;;;3.57;;
74658;SDS011;63186;51.204;6.536;2023-10-31T04:34:09;7.70;;;3.63;;
74658;SDS011;63186;51.204;6.536;2023-10-31T04:36:34;6.60;;;2.93;;
74658;SDS011;63186;51.204;6.536;2023-10-31T04:38:59;9.33;;;3.87;;
74658;SDS011;63186;51.204;6.536;2023-10-31T04:41:24;7.73;;;3.53;;
74658;SDS011;63186;51.204;6.536;2023-10-31T04:43:50;6.53;;;3.00;;
74658;SDS011;63186;51.204;6.536;2023-10-31T04:46:15;6.40;;;3.50;;
74658;SDS011;63186;51.204;6.536;2023-10-31T04:48:41;8.23;;;3.50;;
74658;SDS011;63186;51.204;6.536;2023-10-31T04:51:06;8.55;;;3.90;;
74658;SDS011;63186;51.204;6.536;2023-10-31T04:53:32;8.10;;;3.67;;
74658;SDS011;63186;51.204;6.536;2023-10-31T04:55:59;7.70;;;3.80;;
74658;SDS011;63186;51.204;6.536;2023-10-31T04:58:24;7.43;;;3.20;;
74658;SDS011;63186;51.204;6.536;2023-10-31T05:00:49;7.63;;;3.33;;
74658;SDS011;63186;51.204;6.536;2023-10-31T05:03:15;7.73;;;3.67;;
74658;SDS011;63186;51.204;6.536;2023-10-31T05:05:40;7.20;;;3.17;;
74658;SDS011;63186;51.204;6.536;2023-10-31T05:08:05;8.52;;;4.05;;
74658;SDS011;63186;51.204;6.536;2023-10-31T05:10:31;8.40;;;3.47;;
74658;SDS011;63186;51.204;6.536;2023-10-31T05:12:56;6.60;;;2.93;;
74658;SDS011;63186;51.204;6.536;2023-10-31T05:15:22;8.88;;;3.90;;
74658;SDS011;63186;51.204;6.536;2023-10-31T05:17:47;6.55;;;3.00;;
74658;SDS011;63186;51.204;6.536;2023-10-31T05:20:12;8.57;;;4.07;;
74658;SDS011;63186;51.204;6.536;2023-10-31T05:22:38;8.30;;;3.40;;
74658;SDS011;63186;51.204;6.536;2023-10-31T05:25:05;7.25;;;4.05;;
74658;SDS011;63186;51.204;6.536;2023-10-31T05:27:31;8.35;;;4.00;;
74658;SDS011;63186;51.204;6.536;2023-10-31T05:29:56;7.63;;;3.47;;
74658;SDS011;63186;51.204;6.536;2023-10-31T05:32:21;7.33;;;4.00;;
74658;SDS011;63186;51.204;6.536;2023-10-31T05:34:47;6.57;;;2.92;;
74658;SDS011;63186;51.204;6.536;2023-10-31T05:37:12;8.10;;;3.57;;
74658;SDS011;63186;51.204;6.536;2023-10-31T05:39:37;7.43;;;3.83;;
74658;SDS011;63186;51.204;6.536;2023-10-31T05:42:03;8.30;;;3.63;;
74658;SDS011;63186;51.204;6.536;2023-10-31T05:44:28;5.68;;;2.63;;
74658;SDS011;63186;51.204;6.536;2023-10-31T05:46:53;6.63;;;3.30;;
74658;SDS011;63186;51.204;6.536;2023-10-31T05:49:19;7.72;;;3.55;;
74658;SDS011;63186;51.204;6.536;2023-10-31T05:51:44;8.00;;;3.78;;
74658;SDS011;63186;51.204;6.536;2023-10-31T05:54:09;7.63;;;3.85;;
74658;SDS011;63186;51.204;6.536;2023-10-31T05:56:35;6.50;;;2.77;;
74658;SDS011;63186;51.204;6.536;2023-10-31T05:59:00;6.47;;;3.20;;
74658;SDS011;63186;51.204;6.536;2023-10-31T06:01:25;9.67;;;3.93;;
74658;SDS011;63186;51.204;6.536;2023-10-31T06:03:50;10.23;;;3.87;;
74658;SDS011;63186;51.204;6.536;2023-10-31T06:06:16;9.38;;;4.78;;
74658;SDS011;63186;51.204;6.536;2023-10-31T06:08:41;8.73;;;4.40;;
74658;SDS011;63186;51.204;6.536;2023-10-31T06:11:07;7.68;;;4.00;;
74658;SDS011;63186;51.204;6.536;2023-10-31T06:13:33;7.78;;;3.30;;
74658;SDS011;63186;51.204;6.536;2023-10-31T06:15:59;9.85;;;4.60;;
74658;SDS011;63186;51.204;6.536;2023-10-31T06:18:25;9.30;;;4.53;;
74658;SDS011;63186;51.204;6.536;2023-10-31T06:20:51;8.75;;;3.95;;
74658;SDS011;63186;51.204;6.536;2023-10-31T06:23:17;10.85;;;5.00;;
74658;SDS011;63186;51.204;6.536;2023-10-31T06:25:42;9.67;;;4.37;;
74658;SDS011;63186;51.204;6.536;2023-10-31T06:28:07;10.60;;;5.00;;
74658;SDS011;63186;51.204;6.536;2023-10-31T06:30:32;9.17;;;4.50;;
74658;SDS011;63186;51.204;6.536;2023-10-31T06:32:58;10.63;;;5.70;;
74658;SDS011;63186;51.204;6.536;2023-10-31T06:35:24;9.75;;;4.65;;
74658;SDS011;63186;51.204;6.536;2023-10-31T06:37:49;8.98;;;3.75;;
74658;SDS011;63186;51.204;6.536;2023-10-31T06:40:16;7.70;;;3.78;;
74658;SDS011;63186;51.204;6.536;2023-10-31T06:42:41;8.20;;;3.67;;
74658;SDS011;63186;51.204;6.536;2023-10-31T06:45:06;23.73;;;21.37;;
74658;SDS011;63186;51.204;6.536;2023-10-31T06:47:32;9.80;;;6.00;;
74658;SDS011;63186;51.204;6.536;2023-10-31T06:49:57;12.13;;;3.67;;
74658;SDS011;63186;51.204;6.536;2023-10-31T06:52:22;8.23;;;3.73;;
74658;SDS011;63186;51.204;6.536;2023-10-31T06:54:48;8.80;;;3.80;;
74658;SDS011;63186;51.204;6.536;2023-10-31T06:57:13;8.43;;;4.23;;
74658;SDS011;63186;51.204;6.536;2023-10-31T06:59:40;8.15;;;4.03;;
74658;SDS011;63186;51.204;6.536;2023-10-31T07:02:05;8.77;;;4.73;;
74658;SDS011;63186;51.204;6.536;2023-10-31T07:04:31;9.38;;;4.68;;
74658;SDS011;63186;51.204;6.536;2023-10-31T07:06:56;10.30;;;4.40;;
74658;SDS011;63186;51.204;6.536;2023-10-31T07:09:23;9.00;;;3.85;;
74658;SDS011;63186;51.204;6.536;2023-10-31T07:11:48;9.18;;;4.03;;
74658;SDS011;63186;51.204;6.536;2023-10-31T07:14:14;9.40;;;4.35;;
74658;SDS011;63186;51.204;6.536;2023-10-31T07:16:39;8.88;;;4.30;;
74658;SDS011;63186;51.204;6.536;2023-10-31T07:19:05;9.88;;;4.45;;
74658;SDS011;63186;51.204;6.536;2023-10-31T07:21:30;11.73;;;5.07;;
74658;SDS011;63186;51.204;6.536;2023-10-31T07:23:55;9.38;;;4.57;;
74658;SDS011;63186;51.204;6.536;2023-10-31T07:26:21;9.23;;;4.97;;
74658;SDS011;63186;51.204;6.536;2023-10-31T07:28:46;10.13;;;4.80;;
74658;SDS011;63186;51.204;6.536;2023-10-31T07:31:13;8.25;;;4.47;;
74658;SDS011;63186;51.204;6.536;2023-10-31T07:33:39;7.82;;;3.92;;
74658;SDS011;63186;51.204;6.536;2023-10-31T07:36:04;8.30;;;3.73;;
74658;SDS011;63186;51.204;6.536;2023-10-31T07:38:29;10.00;;;3.85;;
74658;SDS011;63186;51.204;6.536;2023-10-31T07:40:55;10.70;;;4.47;;
74658;SDS011;63186;51.204;6.536;2023-10-31T07:43:20;8.17;;;4.10;;
74658;SDS011;63186;51.204;6.536;2023-10-31T07:45:46;12.93;;;4.85;;
74658;SDS011;63186;51.204;6.536;2023-10-31T07:48:12;9.20;;;3.97;;
74658;SDS011;63186;51.204;6.536;2023-10-31T07:50:37;11.45;;;3.75;;
74658;SDS011;63186;51.204;6.536;2023-10-31T07:53:02;8.13;;;4.03;;
74658;SDS011;63186;51.204;6.536;2023-10-31T07:55:28;8.00;;;3.87;;
74658;SDS011;63186;51.204;6.536;2023-10-31T07:57:53;8.97;;;4.63;;
74658;SDS011;63186;51.204;6.536;2023-10-31T08:00:18;8.97;;;4.40;;
74658;SDS011;63186;51.204;6.536;2023-10-31T08:02:44;7.95;;;4.05;;
74658;SDS011;63186;51.204;6.536;2023-10-31T08:05:09;7.97;;;3.90;;
74658;SDS011;63186;51.204;6.536;2023-10-31T08:07:35;8.32;;;3.88;;
74658;SDS011;63186;51.204;6.536;2023-10-31T08:10:00;8.45;;;4.10;;
74658;SDS011;63186;51.204;6.536;2023-10-31T08:12:26;9.10;;;3.72;;
74658;SDS011;63186;51.204;6.536;2023-10-31T08:14:51;8.57;;;3.40;;
74658;SDS011;63186;51.204;6.536;2023-10-31T08:17:16;8.83;;;4.57;;
74658;SDS011;63186;51.204;6.536;2023-10-31T08:19:42;10.03;;;3.67;;
74658;SDS011;63186;51.204;6.536;2023-10-31T08:22:07;9.67;;;4.00;;
74658;SDS011;63186;51.204;6.536;2023-10-31T08:24:32;9.20;;;4.30;;
74658;SDS011;63186;51.204;6.536;2023-10-31T08:27:00;10.07;;;4.32;;
74658;SDS011;63186;51.204;6.536;2023-10-31T08:29:26;8.52;;;4.32;;
74658;SDS011;63186;51.204;6.536;2023-10-31T08:31:51;9.00;;;4.37;;
74658;SDS011;63186;51.204;6.536;2023-10-31T08:34:16;8.63;;;4.10;;
74658;SDS011;63186;51.204;6.536;2023-10-31T08:36:42;8.20;;;3.40;;
74658;SDS011;63186;51.204;6.536;2023-10-31T08:39:07;9.47;;;4.77;;
74658;SDS011;63186;51.204;6.536;2023-10-31T08:41:32;10.27;;;4.55;;
74658;SDS011;63186;51.204;6.536;2023-10-31T08:43:57;9.05;;;4.07;;
74658;SDS011;63186;51.204;6.536;2023-10-31T08:46:24;7.65;;;3.88;;
74658;SDS011;63186;51.204;6.536;2023-10-31T08:48:49;9.50;;;4.70;;
74658;SDS011;63186;51.204;6.536;2023-10-31T08:51:15;8.77;;;4.50;;
74658;SDS011;63186;51.204;6.536;2023-10-31T08:53:40;8.05;;;3.83;;
74658;SDS011;63186;51.204;6.536;2023-10-31T08:56:06;8.40;;;4.33;;
74658;SDS011;63186;51.204;6.536;2023-10-31T08:58:32;8.45;;;4.15;;
74658;SDS011;63186;51.204;6.536;2023-10-31T09:00:57;9.13;;;4.53;;
74658;SDS011;63186;51.204;6.536;2023-10-31T09:03:22;9.87;;;4.23;;
74658;SDS011;63186;51.204;6.536;2023-10-31T09:05:48;12.17;;;4.53;;
74658;SDS011;63186;51.204;6.536;2023-10-31T09:08:13;8.87;;;3.90;;
74658;SDS011;63186;51.204;6.536;2023-10-31T09:10:38;10.07;;;4.57;;
74658;SDS011;63186;51.204;6.536;2023-10-31T09:13:03;9.77;;;4.30;;
74658;SDS011;63186;51.204;6.536;2023-10-31T09:15:29;10.55;;;5.05;;
74658;SDS011;63186;51.204;6.536;2023-10-31T09:17:55;10.33;;;4.23;;
74658;SDS011;63186;51.204;6.536;2023-10-31T09:20:20;9.87;;;4.10;;
74658;SDS011;63186;51.204;6.536;2023-10-31T09:22:45;9.47;;;3.93;;
74658;SDS011;63186;51.204;6.536;2023-10-31T09:25:10;8.40;;;3.37;;
74658;SDS011;63186;51.204;6.536;2023-10-31T09:27:37;8.05;;;3.70;;
74658;SDS011;63186;51.204;6.536;2023-10-31T09:30:03;8.05;;;3.10;;
74658;SDS011;63186;51.204;6.536;2023-10-31T09:32:29;6.38;;;3.05;;
74658;SDS011;63186;51.204;6.536;2023-10-31T09:34:54;9.40;;;3.40;;
74658;SDS011;63186;51.204;6.536;2023-10-31T09:37:20;7.47;;;3.20;;
74658;SDS011;63186;51.204;6.536;2023-10-31T09:39:45;6.40;;;3.10;;
74658;SDS011;63186;51.204;6.536;2023-10-31T09:42:10;7.07;;;2.93;;
74658;SDS011;63186;51.204;6.536;2023-10-31T09:44:36;6.80;;;2.77;;
74658;SDS011;63186;51.204;6.536;2023-10-31T09:47:01;7.47;;;2.80;;
74658;SDS011;63186;51.204;6.536;2023-10-31T09:49:27;6.97;;;3.25;;
74658;SDS011;63186;51.204;6.536;2023-10-31T09:51:53;6.97;;;2.80;;
74658;SDS011;63186;51.204;6.536;2023-10-31T09:54:18;5.82;;;2.80;;
74658;SDS011;63186;51.204;6.536;2023-10-31T09:56:44;4.90;;;2.40;;
74658;SDS011;63186;51.204;6.536;2023-10-31T09:59:10;6.07;;;2.70;;
74658;SDS011;63186;51.204;6.536;2023-10-31T10:01:35;6.30;;;2.28;;
74658;SDS011;63186;51.204;6.536;2023-10-31T10:04:01;6.03;;;2.47;;
74658;SDS011;63186;51.204;6.536;2023-10-31T10:06:26;5.82;;;3.00;;
74658;SDS011;63186;51.204;6.536;2023-10-31T10:08:52;7.13;;;2.13;;
74658;SDS011;63186;51.204;6.536;2023-10-31T10:11:17;9.90;;;2.70;;
74658;SDS011;63186;51.204;6.536;2023-10-31T10:13:42;5.72;;;2.17;;
74658;SDS011;63186;51.204;6.536;2023-10-31T10:16:08;4.83;;;2.30;;
74658;SDS011;63186;51.204;6.536;2023-10-31T10:18:35;5.22;;;2.10;;
74658;SDS011;63186;51.204;6.536;2023-10-31T10:21:03;6.18;;;2.45;;
74658;SDS011;63186;51.204;6.536;2023-10-31T10:23:29;5.32;;;1.92;;
74658;SDS011;63186;51.204;6.536;2023-10-31T10:25:56;3.78;;;2.03;;
74658;SDS011;63186;51.204;6.536;2023-10-31T10:28:22;5.30;;;2.08;;
74658;SDS011;63186;51.204;6.536;2023-10-31T10:30:50;8.57;;;2.20;;
74658;SDS011;63186;51.204;6.536;2023-10-31T10:33:17;4.35;;;1.90;;
74658;SDS011;63186;51.204;6.536;2023-10-31T10:35:43;4.30;;;1.77;;
74658;SDS011;63186;51.204;6.536;2023-10-31T10:38:13;8.00;;;1.92;;
74658;SDS011;63186;51.204;6.536;2023-10-31T10:40:42;6.15;;;2.05;;
74658;SDS011;63186;51.204;6.536;2023-10-31T10:43:20;4.88;;;2.25;;
74658;SDS011;63186;51.204;6.536;2023-10-31T10:45:49;3.83;;;1.60;;
74658;SDS011;63186;51.204;6.536;2023-10-31T10:48:24;3.40;;;1.60;;
74658;SDS011;63186;51.204;6.536;2023-10-31T10:50:51;4.00;;;1.73;;
74658;SDS011;63186;51.204;6.536;2023-10-31T10:53:25;3.10;;;1.70;;
74658;SDS011;63186;51.204;6.536;2023-10-31T10:56:00;5.95;;;2.33;;
74658;SDS011;63186;51.204;6.536;2023-10-31T10:58:37;4.82;;;1.83;;
74658;SDS011;63186;51.204;6.536;2023-10-31T11:01:24;6.00;;;1.80;;
74658;SDS011;63186;51.204;6.536;2023-10-31T11:03:52;8.80;;;3.20;;
74658;SDS011;63186;51.204;6.536;2023-10-31T11:06:20;6.80;;;2.85;;
74658;SDS011;63186;51.204;6.536;2023-10-31T11:08:46;3.13;;;1.70;;
74658;SDS011;63186;51.204;6.536;2023-10-31T11:11:12;5.13;;;2.10;;
74658;SDS011;63186;51.204;6.536;2023-10-31T11:13:40;5.10;;;1.52;;
74658;SDS011;63186;51.204;6.536;2023-10-31T11:16:11;5.13;;;2.22;;
74658;SDS011;63186;51.204;6.536;2023-10-31T11:18:40;7.00;;;2.30;;
74658;SDS011;63186;51.204;6.536;2023-10-31T11:21:06;2.10;;;1.13;;
74658;SDS011;63186;51.204;6.536;2023-10-31T11:23:31;3.67;;;1.40;;
74658;SDS011;63186;51.204;6.536;2023-10-31T11:25:57;5.37;;;1.60;;
74658;SDS011;63186;51.204;6.536;2023-10-31T11:28:22;6.20;;;1.83;;
74658;SDS011;63186;51.204;6.536;2023-10-31T11:30:48;4.77;;;1.70;;
74658;SDS011;63186;51.204;6.536;2023-10-31T11:33:15;4.28;;;1.80;;
74658;SDS011;63186;51.204;6.536;2023-10-31T11:35:43;2.65;;;1.42;;
74658;SDS011;63186;51.204;6.536;2023-10-31T11:38:10;3.38;;;1.52;;
74658;SDS011;63186;51.204;6.536;2023-10-31T11:43:14;2.90;;;1.50;;
74658;SDS011;63186;51.204;6.536;2023-10-31T11:48:10;2.70;;;1.48;;
74658;SDS011;63186;51.204;6.536;2023-10-31T11:50:36;5.80;;;2.00;;
74658;SDS011;63186;51.204;6.536;2023-10-31T11:53:06;3.85;;;1.70;;
74658;SDS011;63186;51.204;6.536;2023-10-31T11:55:45;2.42;;;1.42;;
74658;SDS011;63186;51.204;6.536;2023-10-31T11:58:12;3.40;;;1.52;;
74658;SDS011;63186;51.204;6.536;2023-10-31T12:00:42;5.85;;;1.90;;
74658;SDS011;63186;51.204;6.536;2023-10-31T12:03:07;3.17;;;1.63;;
74658;SDS011;63186;51.204;6.536;2023-10-31T12:05:33;3.73;;;1.80;;
74658;SDS011;63186;51.204;6.536;2023-10-31T12:07:58;4.00;;;1.60;;
74658;SDS011;63186;51.204;6.536;2023-10-31T12:10:28;4.30;;;1.87;;
74658;SDS011;63186;51.204;6.536;2023-10-31T12:12:56;4.20;;;1.92;;
74658;SDS011;63186;51.204;6.536;2023-10-31T12:15:22;6.32;;;2.45;;
74658;SDS011;63186;51.204;6.536;2023-10-31T12:17:48;3.15;;;1.77;;
74658;SDS011;63186;51.204;6.536;2023-10-31T12:20:14;3.35;;;1.95;;
74658;SDS011;63186;51.204;6.536;2023-10-31T12:22:40;4.10;;;1.63;;
74658;SDS011;63186;51.204;6.536;2023-10-31T12:25:06;8.20;;;3.13;;
74658;SDS011;63186;51.204;6.536;2023-10-31T12:27:43;4.25;;;2.13;;
74658;SDS011;63186;51.204;6.536;2023-10-31T12:30:09;4.18;;;1.88;;
74658;SDS011;63186;51.204;6.536;2023-10-31T12:32:35;5.38;;;2.20;;
74658;SDS011;63186;51.204;6.536;2023-10-31T12:35:01;5.38;;;2.40;;
74658;SDS011;63186;51.204;6.536;2023-10-31T12:37:26;8.40;;;2.30;;
74658;SDS011;63186;51.204;6.536;2023-10-31T12:39:52;5.55;;;2.15;;
74658;SDS011;63186;51.204;6.536;2023-10-31T12:42:17;3.97;;;2.03;;
74658;SDS011;63186;51.204;6.536;2023-10-31T12:44:44;5.72;;;2.30;;
74658;SDS011;63186;51.204;6.536;2023-10-31T12:47:09;3.30;;;1.92;;
74658;SDS011;63186;51.204;6.536;2023-10-31T12:49:34;4.37;;;1.77;;
74658;SDS011;63186;51.204;6.536;2023-10-31T12:52:03;3.70;;;1.93;;
74658;SDS011;63186;51.204;6.536;2023-10-31T12:54:33;4.68;;;2.03;;
74658;SDS011;63186;51.204;6.536;2023-10-31T12:57:02;3.75;;;1.70;;
74658;SDS011;63186;51.204;6.536;2023-10-31T12:59:29;3.13;;;1.58;;
74658;SDS011;63186;51.204;6.536;2023-10-31T13:01:55;4.47;;;1.52;;
74658;SDS011;63186;51.204;6.536;2023-10-31T13:04:24;4.93;;;1.77;;
74658;SDS011;63186;51.204;6.536;2023-10-31T13:06:58;3.35;;;1.60;;
74658;SDS011;63186;51.204;6.536;2023-10-31T13:09:28;8.93;;;7.78;;
74658;SDS011;63186;51.204;6.536;2023-10-31T13:11:56;7.18;;;1.58;;
74658;SDS011;63186;51.204;6.536;2023-10-31T13:14:22;3.33;;;1.50;;
74658;SDS011;63186;51.204;6.536;2023-10-31T13:16:47;4.53;;;1.57;;
74658;SDS011;63186;51.204;6.536;2023-10-31T13:19:13;5.67;;;2.07;;
74658;SDS011;63186;51.204;6.536;2023-10-31T13:21:38;4.23;;;1.80;;
74658;SDS011;63186;51.204;6.536;2023-10-31T13:24:03;2.93;;;1.73;;
74658;SDS011;63186;51.204;6.536;2023-10-31T13:26:29;3.90;;;1.23;;
74658;SDS011;63186;51.204;6.536;2023-10-31T13:28:54;2.70;;;1.03;;
74658;SDS011;63186;51.204;6.536;2023-10-31T13:31:19;8.10;;;1.57;;
74658;SDS011;63186;51.204;6.536;2023-10-31T13:33:44;2.93;;;1.17;;
74658;SDS011;63186;51.204;6.536;2023-10-31T13:36:11;2.10;;;1.00;;
74658;SDS011;63186;51.204;6.536;2023-10-31T13:38:37;3.80;;;1.30;;
74658;SDS011;63186;51.204;6.536;2023-10-31T13:41:03;4.53;;;1.08;;
74658;SDS011;63186;51.204;6.536;2023-10-31T13:43:28;2.20;;;1.40;;
74658;SDS011;63186;51.204;6.536;2023-10-31T13:45:54;2.10;;;1.13;;
74658;SDS011;63186;51.204;6.536;2023-10-31T13:48:19;5.57;;;1.30;;
74658;SDS011;63186;51.204;6.536;2023-10-31T13:50:44;2.60;;;1.40;;
74658;SDS011;63186;51.204;6.536;2023-10-31T13:53:09;3.70;;;1.20;;
74658;SDS011;63186;51.204;6.536;2023-10-31T13:55:35;2.73;;;1.30;;
74658;SDS011;63186;51.204;6.536;2023-10-31T13:58:00;3.95;;;1.70;;
74658;SDS011;63186;51.204;6.536;2023-10-31T14:00:26;5.90;;;1.45;;
74658;SDS011;63186;51.204;6.536;2023-10-31T14:02:51;3.20;;;1.30;;
74658;SDS011;63186;51.204;6.536;2023-10-31T14:05:16;6.83;;;1.47;;
74658;SDS011;63186;51.204;6.536;2023-10-31T14:07:41;1.83;;;1.10;;
74658;SDS011;63186;51.204;6.536;2023-10-31T14:10:07;3.15;;;0.93;;
74658;SDS011;63186;51.204;6.536;2023-10-31T14:12:32;4.60;;;1.52;;
74658;SDS011;63186;51.204;6.536;2023-10-31T14:14:58;3.10;;;1.23;;
74658;SDS011;63186;51.204;6.536;2023-10-31T14:17:24;8.40;;;1.40;;
74658;SDS011;63186;51.204;6.536;2023-10-31T14:19:49;3.08;;;1.25;;
74658;SDS011;63186;51.204;6.536;2023-10-31T14:22:14;2.67;;;1.10;;
74658;SDS011;63186;51.204;6.536;2023-10-31T14:24:40;4.33;;;1.30;;
74658;SDS011;63186;51.204;6.536;2023-10-31T14:27:05;4.63;;;1.15;;
74658;SDS011;63186;51.204;6.536;2023-10-31T14:29:31;4.07;;;1.40;;
74658;SDS011;63186;51.204;6.536;2023-10-31T14:31:56;3.15;;;1.42;;
74658;SDS011;63186;51.204;6.536;2023-10-31T14:34:22;3.13;;;1.33;;
74658;SDS011;63186;51.204;6.536;2023-10-31T14:36:48;7.50;;;1.52;;
74658;SDS011;63186;51.204;6.536;2023-10-31T14:39:13;4.50;;;1.50;;
74658;SDS011;63186;51.204;6.536;2023-10-31T14:41:39;4.30;;;1.40;;
74658;SDS011;63186;51.204;6.536;2023-10-31T14:44:05;3.47;;;1.10;;